createdAt,value
2018-06-09T00:02:17.321Z,11
2018-06-09T00:12:17.255Z,11
2018-06-09T00:22:17.237Z,13
2018-06-09T00:32:17.261Z,15
2018-06-09T00:42:17.205Z,16
2018-06-09T00:52:17.188Z,15
2018-06-09T01:02:17.192Z,13
2018-06-09T01:12:17.138Z,14
2018-06-09T01:22:17.255Z,13
2018-06-09T01:32:17.172Z,13
2018-06-09T01:42:17.248Z,13
2018-06-09T01:52:17.215Z,13
2018-06-09T02:02:17.177Z,13
2018-06-09T02:12:17.249Z,12
2018-06-09T02:22:17.217Z,11
2018-06-09T02:32:17.208Z,12
2018-06-09T02:42:17.238Z,13
2018-06-09T02:52:17.224Z,13
2018-06-09T03:02:17.312Z,13
2018-06-09T03:12:17.188Z,11
2018-06-09T03:22:17.158Z,12
2018-06-09T03:32:17.265Z,11
2018-06-09T03:42:17.171Z,11
2018-06-09T03:52:17.173Z,11
2018-06-09T04:02:17.226Z,11
2018-06-09T04:12:17.149Z,10
2018-06-09T04:28:45.838Z,11
2018-06-09T04:32:17.131Z,12
2018-06-09T04:42:17.159Z,11
2018-06-09T04:52:17.288Z,11
2018-06-09T05:02:17.241Z,11
2018-06-09T05:12:17.270Z,11
2018-06-09T05:22:17.225Z,11
2018-06-09T05:32:17.206Z,13
2018-06-09T05:42:17.373Z,13
2018-06-09T05:52:17.268Z,13
2018-06-09T06:02:17.346Z,12
2018-06-09T06:12:17.293Z,14
2018-06-09T06:22:17.202Z,13
2018-06-09T06:32:17.330Z,13
2018-06-09T06:42:17.277Z,12
2018-06-09T06:52:17.274Z,14
2018-06-09T07:02:17.262Z,13
2018-06-09T07:12:17.207Z,13
2018-06-09T07:22:17.299Z,14
2018-06-09T07:32:17.227Z,11
2018-06-09T07:42:17.241Z,12
2018-06-09T07:52:17.358Z,12
2018-06-09T08:02:17.190Z,12
2018-06-09T08:12:17.243Z,13
2018-06-09T08:22:17.274Z,12
2018-06-09T08:32:17.354Z,11
2018-06-09T08:42:17.324Z,12
2018-06-09T08:52:17.240Z,13
2018-06-09T09:02:17.251Z,14
2018-06-09T09:12:17.243Z,16
2018-06-09T09:22:17.383Z,14
2018-06-09T09:32:17.272Z,15
2018-06-09T09:42:17.252Z,17
2018-06-09T09:52:17.357Z,17
2018-06-09T10:02:17.293Z,17
2018-06-09T10:12:17.359Z,19
2018-06-09T10:22:17.306Z,18
2018-06-09T10:32:17.357Z,20
2018-06-09T10:42:17.297Z,20
2018-06-09T10:52:17.252Z,18
2018-06-09T11:02:17.411Z,18
2018-06-09T11:12:17.279Z,20
2018-06-09T11:22:17.327Z,22
2018-06-09T11:32:17.288Z,23
2018-06-09T11:42:17.433Z,22
2018-06-09T11:52:17.419Z,22
2018-06-09T12:02:17.418Z,25
2018-06-09T12:12:17.358Z,25
2018-06-09T12:22:17.374Z,23
2018-06-09T12:32:17.288Z,25
2018-06-09T12:42:17.370Z,23
2018-06-09T12:52:17.304Z,25
2018-06-09T13:02:17.434Z,21
2018-06-09T13:12:17.382Z,24
2018-06-09T13:22:17.407Z,23
2018-06-09T13:32:17.334Z,23
2018-06-09T13:42:17.352Z,21
2018-06-09T13:52:17.386Z,21
2018-06-09T14:02:17.324Z,22
2018-06-09T14:12:17.477Z,25
2018-06-09T14:22:17.457Z,23
2018-06-09T14:32:17.405Z,22
2018-06-09T14:42:17.371Z,22
2018-06-09T14:52:17.500Z,22
2018-06-09T15:02:18.480Z,22
2018-06-09T15:12:17.336Z,21
2018-06-09T15:22:17.429Z,20
2018-06-09T15:32:17.377Z,21
2018-06-09T15:42:17.450Z,21
2018-06-09T15:52:17.461Z,23
2018-06-09T16:02:17.450Z,21
2018-06-09T16:12:17.391Z,20
2018-06-09T16:22:17.453Z,19
2018-06-09T16:32:17.464Z,20
2018-06-09T16:42:17.424Z,20
2018-06-09T16:52:17.513Z,21
2018-06-09T17:02:17.489Z,20
2018-06-09T17:12:17.458Z,21
2018-06-09T17:22:17.524Z,21
2018-06-09T17:32:17.392Z,21
2018-06-09T17:42:17.471Z,21
2018-06-09T17:52:17.487Z,23
2018-06-09T18:02:17.466Z,21
2018-06-09T18:12:17.614Z,22
2018-06-09T18:22:17.471Z,21
2018-06-09T18:32:17.531Z,22
2018-06-09T18:42:17.522Z,22
2018-06-09T18:52:17.471Z,24
2018-06-09T19:02:17.460Z,25
2018-06-09T19:12:18.441Z,23
2018-06-09T19:22:17.581Z,22
2018-06-09T19:32:17.536Z,25
2018-06-09T19:42:17.567Z,23
2018-06-09T19:52:17.559Z,21
2018-06-09T20:02:17.461Z,21
2018-06-09T20:12:17.569Z,9
2018-06-09T20:22:17.488Z,9
2018-06-09T20:32:19.503Z,9
2018-06-09T20:42:17.552Z,7
2018-06-09T20:52:17.475Z,7
2018-06-09T21:02:17.690Z,7
2018-06-09T21:12:17.458Z,8
2018-06-09T21:22:17.583Z,8
2018-06-09T21:32:17.618Z,9
2018-06-09T21:42:17.483Z,14
2018-06-09T21:52:17.509Z,11
2018-06-09T22:02:17.454Z,12
2018-06-09T22:12:17.485Z,17
2018-06-09T22:22:17.479Z,21
2018-06-09T22:32:17.469Z,18
2018-06-09T22:42:17.628Z,18
2018-06-09T22:52:17.414Z,18
2018-06-09T23:02:17.753Z,16
2018-06-09T23:12:17.511Z,18
2018-06-09T23:22:17.514Z,20
2018-06-09T23:32:17.541Z,18
2018-06-09T23:42:17.552Z,20
2018-06-09T23:52:17.468Z,18
